Impacts TAF Board INFO
FOR SITUATIONAL AWARENESS. NOT TO BE USED FOR FLIGHT PLANNING PURPOSES.
IDs:

KORD - Chicago/O'Hare Intl, IL, US

Issued at 0524 UTC 21 Jan 2017
Updated at 0832 UTC 21 Jan 2017
Potential Impact None Slight Moderate High
Time0810Z 21/09Z 21/10Z 21/11Z 21/12Z 21/13Z 21/14Z 21/15Z 21/16Z 21/17Z 21/18Z 21/19Z 21/20Z 21/21Z
Type OBS PRVL PRVL PRVL PRVL PRVL PRVL PRVL PRVL PRVL PRVL PRVL PRVL PRVL
VIS 3 0.5 0.5 0.5 0.5 1 1 5 5 >6 >6 >6 >6 >6
CIG 36 2 2 2 2 3 3 15 15 -- -- -- -- --
Cover OVC OVC OVC OVC OVC OVC OVC BKN BKN SCT SCT SCT SCT SCT
FltCat MVFR LIFR LIFR LIFR LIFR LIFR LIFR MVFR MVFR VFR VFR VFR VFR VFR
WX BR -DZ FG -DZ FG -DZ FG -DZ FG BR BR BR BR -- -- -- -- --
WDir 150 150 150 150 150 160 160 170 170 190 190 190 190 190
WSpd 8 7 7 7 7 9 9 11 11 12 12 12 12 12
WGst -- -- -- -- -- -- -- -- -- 18 18 18 18 18

Raw TAF
KORD 210524Z 2106/2212 13007KT 2SM BR SCT003 OVC010
  TEMPO 2106/2109 1/2SM -DZ FG OVC003
  FM210900 15007KT 1/2SM -DZ FG OVC002
  FM211300 16009KT 1SM BR OVC003
  FM211500 17011KT 5SM BR SCT007 BKN015
  FM211700 19012G18KT P6SM SCT025
  FM220000 18006KT 6SM BR FEW010 SCT120
  FM220300 VRB03KT 3SM BR SCT004 BKN008
  FM220800 06004KT 3/4SM BR OVC004


Raw METAR
KORD 210810Z 15008KT 3SM BR SCT007 BKN036 OVC043 07/07 A2958 RMK AO2 T00720072 $
KORD 210751Z 16004KT 1 3/4SM BR BKN007 OVC038 07/07 A2959 RMK AO2 DZE09 SLP021 P0000 T00670067 $
KORD 210714Z 13007KT 1 1/2SM BR OVC009 06/06 A2958 RMK AO2 DZE09 P0000 T00610061 $
KORD 210651Z 13005KT 3/4SM R10L/P6000FT -DZ BR OVC008 06/06 A2959 RMK AO2 SLP025 P0000 T00560056 $
KORD 210614Z 00000KT 3/4SM R10L/P6000FT -DZ BR VV007 06/06 A2960 RMK AO2 P0000 T00560056 $
KORD 210551Z 00000KT 1SM R10L/P6000FT -DZ BR BKN005 OVC015 06/05 A2961 RMK AO2 DZE25B41RAB25E41 SLP029 P0002 60002 T00560050 10061 20050 400610033 58011 $
KORD 210542Z 00000KT 1SM R10L/P6000FT -DZ BR BKN005 OVC015 05/05 A2961 RMK AO2 DZE25B41RAB25E41 P0001 T00500050 $

METAR Board
Radar Display
Forecast Discussion

FOR SITUATIONAL AWARENESS. NOT TO BE USED FOR FLIGHT PLANNING PURPOSES.

Page loaded:  08:32 UTC  |   12:32 AM Pacific  |   01:32 AM Mountain  |   02:32 AM Central  |   03:32 AM Eastern

 

ADVISORIES

FORECASTS

FORECASTS

OBSERVATIONS

USER TOOLS

ABOUT US